createdAt,value
2019-02-08T00:00:13.333Z,100646.69
2019-02-08T00:02:40.389Z,100651.84
2019-02-08T00:05:08.327Z,100650.58
2019-02-08T00:07:34.891Z,100653.15
2019-02-08T00:10:01.852Z,100653.13
2019-02-08T00:12:28.455Z,100657.05
2019-02-08T00:14:55.003Z,100656.17
2019-02-08T00:17:21.650Z,100656.17
2019-02-08T00:19:48.320Z,100659.17
2019-02-08T00:22:14.879Z,100657.02
2019-02-08T00:24:41.484Z,100656.59
2019-02-08T00:27:08.060Z,100665.69
2019-02-08T00:29:34.784Z,100661.77
2019-02-08T00:32:01.438Z,100666.98
2019-02-08T00:34:28.036Z,100679.50
2019-02-08T00:36:54.711Z,100672.54
2019-02-08T00:39:21.295Z,100674.73
2019-02-08T00:41:48.298Z,100672.09
2019-02-08T00:44:14.853Z,100682.04
2019-02-08T00:46:41.440Z,100681.63
2019-02-08T00:49:08.064Z,100685.95
2019-02-08T00:51:34.654Z,100684.66
2019-02-08T00:54:01.206Z,100680.82
2019-02-08T00:56:27.823Z,100679.51
2019-02-08T00:58:54.368Z,100686.42
2019-02-08T01:01:21.018Z,100682.48
2019-02-08T01:03:47.663Z,100684.22
2019-02-08T01:06:14.214Z,100686.84
2019-02-08T01:08:42.218Z,100679.88
2019-02-08T01:11:08.909Z,100688.52
2019-02-08T01:13:35.514Z,100678.58
2019-02-08T01:16:02.911Z,100679.87
2019-02-08T01:18:29.531Z,100674.65
2019-02-08T01:20:56.086Z,100675.06
2019-02-08T01:23:22.953Z,100682.45
2019-02-08T01:25:49.568Z,100681.55
2019-02-08T01:28:16.185Z,100688.03
2019-02-08T01:30:42.814Z,100683.28
2019-02-08T01:33:09.521Z,100685.88
2019-02-08T01:35:36.130Z,100679.43
2019-02-08T01:38:02.881Z,100688.92
2019-02-08T01:40:34.698Z,100679.76
2019-02-08T01:43:01.365Z,100680.61
2019-02-08T01:45:30.954Z,100676.72
2019-02-08T01:47:57.842Z,100681.92
2019-02-08T01:50:27.303Z,100678.47
2019-02-08T01:52:53.862Z,100676.26
2019-02-08T01:55:21.014Z,100681.03
2019-02-08T01:57:49.254Z,100669.33
2019-02-08T02:00:20.827Z,100667.16
2019-02-08T02:02:47.411Z,100675.81
2019-02-08T02:05:14.869Z,100675.78
2019-02-08T02:07:41.540Z,100679.69
2019-02-08T02:10:13.958Z,100678.80
2019-02-08T02:12:40.519Z,100677.11
2019-02-08T02:15:07.456Z,100675.36
2019-02-08T02:17:34.115Z,100681.36
2019-02-08T02:20:00.749Z,100678.34
2019-02-08T02:22:27.341Z,100677.93
2019-02-08T02:24:53.929Z,100673.12
2019-02-08T02:27:20.487Z,100673.55
2019-02-08T02:29:47.058Z,100685.20
2019-02-08T02:32:13.684Z,100687.37
2019-02-08T02:34:40.235Z,100689.52
2019-02-08T02:37:07.249Z,100701.69
2019-02-08T02:39:34.014Z,100693.42
2019-02-08T02:42:00.609Z,100695.99
2019-02-08T02:44:27.211Z,100695.56
2019-02-08T02:46:53.843Z,100695.60
2019-02-08T02:49:20.483Z,100695.99
2019-02-08T02:51:47.018Z,100706.41
2019-02-08T02:54:14.679Z,100703.78
2019-02-08T02:56:41.342Z,100703.78
2019-02-08T02:59:08.097Z,100708.56
2019-02-08T03:01:34.653Z,100702.48
2019-02-08T03:04:02.689Z,100711.08
2019-02-08T03:06:29.374Z,100719.27
2019-02-08T03:08:55.943Z,100721.44
2019-02-08T03:11:22.535Z,100717.98
2019-02-08T03:13:49.074Z,100721.04
2019-02-08T03:16:15.745Z,100715.36
2019-02-08T03:18:42.545Z,100722.35
2019-02-08T03:21:10.614Z,100721.05
2019-02-08T03:23:37.231Z,100719.79
2019-02-08T03:26:03.822Z,100728.37
2019-02-08T03:28:30.457Z,100724.00
2019-02-08T03:30:58.591Z,100733.96
2019-02-08T03:33:25.183Z,100737.40
2019-02-08T03:35:54.898Z,100739.64
2019-02-08T03:38:21.508Z,100737.88
2019-02-08T03:40:48.088Z,100735.75
2019-02-08T03:43:17.510Z,100733.97
2019-02-08T03:45:46.173Z,100736.98
2019-02-08T03:48:12.879Z,100734.02
2019-02-08T03:50:39.565Z,100727.55
2019-02-08T03:53:07.379Z,100730.16
2019-02-08T03:55:33.978Z,100735.37
2019-02-08T03:58:00.623Z,100731.39
2019-02-08T04:00:33.308Z,100740.56
2019-02-08T04:02:59.920Z,100744.44
2019-02-08T04:05:26.524Z,100742.28
2019-02-08T04:07:53.784Z,100733.66
2019-02-08T04:10:20.526Z,100740.17
2019-02-08T04:12:47.141Z,100736.69
2019-02-08T04:15:19.048Z,100745.36
2019-02-08T04:17:45.724Z,100747.52
2019-02-08T04:20:15.625Z,100743.16
2019-02-08T04:22:42.285Z,100744.88
2019-02-08T04:25:12.960Z,100750.51
2019-02-08T04:27:39.759Z,100758.32
2019-02-08T04:30:12.140Z,100756.18
2019-02-08T04:32:38.706Z,100760.97
2019-02-08T04:35:05.324Z,100756.69
2019-02-08T04:37:31.846Z,100756.70
2019-02-08T04:39:58.406Z,100755.41
2019-02-08T04:42:25.033Z,100757.58
2019-02-08T04:44:51.629Z,100756.34
2019-02-08T04:47:18.233Z,100752.86
2019-02-08T04:49:45.008Z,100761.52
2019-02-08T04:52:11.579Z,100765.84
2019-02-08T04:54:38.681Z,100768.02
2019-02-08T04:57:05.501Z,100774.12
2019-02-08T04:59:32.236Z,100777.13
2019-02-08T05:01:58.834Z,100774.55
2019-02-08T05:04:25.508Z,100782.31
2019-02-08T05:06:52.171Z,100781.05
2019-02-08T05:09:18.770Z,100785.36
2019-02-08T05:11:45.363Z,100790.55
2019-02-08T05:14:12.024Z,100783.63
2019-02-08T05:16:38.650Z,100783.19
2019-02-08T05:19:05.179Z,100774.09
2019-02-08T05:21:31.795Z,100787.55
2019-02-08T05:23:58.376Z,100785.83
2019-02-08T05:26:24.992Z,100788.44
2019-02-08T05:28:51.817Z,100787.10
2019-02-08T05:31:18.629Z,100790.58
2019-02-08T05:33:45.322Z,100789.27
2019-02-08T05:36:11.915Z,100792.76
2019-02-08T05:38:39.784Z,100794.03
2019-02-08T05:41:06.370Z,100797.92
2019-02-08T05:43:34.528Z,100802.72
2019-02-08T05:46:01.080Z,100800.11
2019-02-08T05:48:27.632Z,100811.81
2019-02-08T05:50:54.257Z,100817.41
2019-02-08T05:53:20.891Z,100815.26
2019-02-08T05:55:48.549Z,100815.73
2019-02-08T05:58:15.141Z,100814.40
2019-02-08T06:00:46.547Z,100817.88
2019-02-08T06:03:13.179Z,100810.95
2019-02-08T06:05:39.938Z,100811.41
2019-02-08T06:08:07.136Z,100819.59
2019-02-08T06:10:34.911Z,100821.74
2019-02-08T06:13:01.445Z,100818.69
2019-02-08T06:15:28.046Z,100831.23
2019-02-08T06:17:54.599Z,100831.23
2019-02-08T06:20:24.489Z,100841.16
2019-02-08T06:22:51.028Z,100841.56
2019-02-08T06:25:20.088Z,100844.19
2019-02-08T06:27:46.989Z,100851.09
2019-02-08T06:30:18.022Z,100857.56
2019-02-08T06:32:44.838Z,100863.23
2019-02-08T06:35:12.848Z,100862.79
2019-02-08T06:37:44.478Z,100867.97
2019-02-08T06:40:13.757Z,100861.91
2019-02-08T06:42:40.352Z,100869.28
2019-02-08T06:45:12.510Z,100875.33
2019-02-08T06:47:39.179Z,100879.20
2019-02-08T06:50:11.314Z,100876.57
2019-02-08T06:52:37.875Z,100883.05
2019-02-08T06:55:10.943Z,100893.03
2019-02-08T06:57:37.186Z,100889.58
2019-02-08T07:00:10.302Z,100895.61
2019-02-08T07:02:38.774Z,100906.44
2019-02-08T07:05:10.354Z,100904.69
2019-02-08T07:07:38.819Z,100897.31
2019-02-08T07:10:11.556Z,100902.94
2019-02-08T07:12:40.015Z,100908.55
2019-02-08T07:15:10.296Z,100908.48
2019-02-08T07:17:38.821Z,100905.92
2019-02-08T07:20:11.027Z,100909.77
2019-02-08T07:22:39.552Z,100906.77
2019-02-08T07:25:09.949Z,100911.08
2019-02-08T07:27:38.468Z,100914.48
2019-02-08T07:30:12.692Z,100919.67
2019-02-08T07:32:42.408Z,100917.09
2019-02-08T07:35:11.800Z,100923.09
2019-02-08T07:37:40.267Z,100913.16
2019-02-08T07:40:14.488Z,100916.59
2019-02-08T07:42:41.039Z,100920.07
2019-02-08T07:45:09.607Z,100923.48
2019-02-08T07:47:38.183Z,100929.97
2019-02-08T07:50:11.954Z,100934.72
2019-02-08T07:52:40.474Z,100942.14
2019-02-08T07:55:12.705Z,100947.73
2019-02-08T07:57:41.211Z,100944.66
2019-02-08T08:00:15.168Z,100941.16
2019-02-08T08:02:43.628Z,100951.59
2019-02-08T08:05:12.321Z,100945.48
2019-02-08T08:07:41.140Z,100948.13
2019-02-08T08:10:14.643Z,100950.30
2019-02-08T08:12:43.544Z,100946.80
2019-02-08T08:15:16.353Z,100955.49
2019-02-08T08:17:45.018Z,100950.26
2019-02-08T08:20:18.553Z,100962.01
2019-02-08T08:22:47.290Z,100964.16
2019-02-08T08:25:15.830Z,100958.92
2019-02-08T08:27:44.917Z,100957.19
2019-02-08T08:30:19.124Z,100955.39
2019-02-08T08:32:50.020Z,100954.03
2019-02-08T08:35:22.391Z,100947.89
2019-02-08T08:37:54.790Z,100950.41
2019-02-08T08:40:27.073Z,100944.25
2019-02-08T08:42:59.374Z,100950.27
2019-02-08T08:45:31.693Z,100959.92
2019-02-08T08:48:04.004Z,100953.66
2019-02-08T08:50:34.444Z,100958.45
2019-02-08T08:53:06.879Z,100954.41
2019-02-08T08:55:42.271Z,100949.91
2019-02-08T08:58:13.448Z,100952.88
2019-02-08T09:00:45.795Z,100948.05
2019-02-08T09:03:18.054Z,100953.53
2019-02-08T09:05:52.310Z,100951.35
2019-02-08T09:08:24.710Z,100952.81
2019-02-08T09:10:57.177Z,100957.98
2019-02-08T09:13:27.582Z,100960.98
2019-02-08T09:15:59.887Z,100964.25
2019-02-08T09:18:30.334Z,100966.42
2019-02-08T09:21:02.706Z,100971.15
2019-02-08T09:23:35.072Z,100971.53
2019-02-08T09:26:07.412Z,100982.70
2019-02-08T09:28:40.950Z,100980.79
2019-02-08T09:31:11.373Z,100978.42
2019-02-08T09:33:43.659Z,100981.97
2019-02-08T09:36:16.064Z,100983.42
2019-02-08T09:38:48.421Z,100982.30
2019-02-08T09:41:18.860Z,100984.59
2019-02-08T09:43:49.304Z,100983.92
2019-02-08T09:46:21.685Z,100979.80
2019-02-08T09:48:53.987Z,100979.41
2019-02-08T09:51:26.355Z,100975.36
2019-02-08T09:53:58.678Z,100978.64
2019-02-08T09:56:31.146Z,100974.62
2019-02-08T09:59:03.446Z,100971.05
2019-02-08T10:01:33.922Z,100974.22
2019-02-08T10:04:06.391Z,100980.51
2019-02-08T10:06:38.836Z,100975.63
2019-02-08T10:09:11.101Z,100975.50
2019-02-08T10:11:43.573Z,100980.13
2019-02-08T10:14:15.938Z,100975.86
2019-02-08T10:16:52.031Z,100970.58
2019-02-08T10:19:24.291Z,100965.33
2019-02-08T10:21:56.628Z,100974.34
2019-02-08T10:24:28.970Z,100976.37
2019-02-08T10:27:01.352Z,100981.77
2019-02-08T10:29:33.677Z,100978.33
2019-02-08T10:32:07.145Z,100978.04
2019-02-08T10:34:39.465Z,100969.80
2019-02-08T10:37:11.877Z,100971.20
2019-02-08T10:39:44.162Z,100969.23
2019-02-08T10:42:16.533Z,100967.19
2019-02-08T10:44:48.865Z,100971.78
2019-02-08T10:47:21.263Z,100959.06
2019-02-08T10:49:53.585Z,100965.48
2019-02-08T10:52:25.877Z,100959.03
2019-02-08T10:54:58.150Z,100954.56
2019-02-08T10:57:30.513Z,100959.91
2019-02-08T11:00:02.781Z,100961.72
2019-02-08T11:02:36.561Z,100964.72
2019-02-08T11:05:08.977Z,100957.69
2019-02-08T11:07:41.341Z,100969.23
2019-02-08T11:10:13.618Z,100958.76
2019-02-08T11:12:46.033Z,100969.37
2019-02-08T11:15:18.357Z,100957.19
2019-02-08T11:17:52.498Z,100953.76
2019-02-08T11:20:19.127Z,100957.09
2019-02-08T11:22:45.794Z,100957.85
2019-02-08T11:25:12.379Z,100962.66
2019-02-08T11:27:38.958Z,100956.30
2019-02-08T11:30:11.199Z,100966.03
2019-02-08T11:32:43.199Z,100956.84
2019-02-08T11:35:08.716Z,100951.95
2019-02-08T11:37:35.338Z,100959.31
2019-02-08T11:40:07.648Z,100956.28
2019-02-08T11:42:34.196Z,100953.66
2019-02-08T11:45:00.775Z,100957.52
2019-02-08T11:47:27.332Z,100960.20
2019-02-08T11:49:53.878Z,100957.23
2019-02-08T11:52:20.467Z,100956.31
2019-02-08T11:54:47.022Z,100962.33
2019-02-08T11:57:13.611Z,100954.79
2019-02-08T11:59:40.167Z,100952.49
2019-02-08T12:02:06.941Z,100958.50
2019-02-08T12:04:33.616Z,100951.64
2019-02-08T12:07:00.217Z,100950.67
2019-02-08T12:09:26.771Z,100949.90
2019-02-08T12:11:53.340Z,100956.41
2019-02-08T12:14:19.956Z,100958.16
2019-02-08T12:16:46.512Z,100950.78
2019-02-08T12:19:13.074Z,100948.84
2019-02-08T12:21:39.864Z,100953.22
2019-02-08T12:24:06.755Z,100938.92
2019-02-08T12:26:37.867Z,100944.40
2019-02-08T12:29:01.891Z,100944.03
2019-02-08T12:31:28.795Z,100938.61
2019-02-08T12:33:55.388Z,100947.95
2019-02-08T12:36:21.983Z,100946.25
2019-02-08T12:38:49.453Z,100934.73
2019-02-08T12:41:16.004Z,100934.62
2019-02-08T12:43:42.631Z,100943.02
2019-02-08T12:46:09.250Z,100942.36
2019-02-08T12:48:36.528Z,100937.86
2019-02-08T12:51:03.573Z,100929.72
2019-02-08T12:53:30.166Z,100934.89
2019-02-08T12:55:56.774Z,100924.52
2019-02-08T12:58:23.467Z,100933.96
2019-02-08T13:00:50.061Z,100934.53
2019-02-08T13:03:16.720Z,100927.28
2019-02-08T13:05:43.386Z,100930.11
2019-02-08T13:08:10.049Z,100928.05
2019-02-08T13:10:36.739Z,100930.17
2019-02-08T13:13:03.380Z,100933.07
2019-02-08T13:15:29.982Z,100928.98
2019-02-08T13:17:56.612Z,100927.33
2019-02-08T13:20:23.654Z,100934.34
2019-02-08T13:22:51.899Z,100940.39
2019-02-08T13:25:18.739Z,100933.61
2019-02-08T13:27:47.191Z,100935.84
2019-02-08T13:30:19.002Z,100944.41
2019-02-08T13:32:45.572Z,100939.63
2019-02-08T13:35:12.116Z,100934.30
2019-02-08T13:37:38.699Z,100930.64
2019-02-08T13:40:11.104Z,100931.74
2019-02-08T13:42:37.848Z,100928.41
2019-02-08T13:45:09.999Z,100940.70
2019-02-08T13:47:37.387Z,100931.41
2019-02-08T13:50:09.997Z,100927.19
2019-02-08T13:52:36.662Z,100931.83
2019-02-08T13:55:07.991Z,100933.14
2019-02-08T13:57:34.588Z,100931.09
2019-02-08T14:00:01.173Z,100931.44
2019-02-08T14:02:27.735Z,100934.95
2019-02-08T14:04:54.284Z,100933.08
2019-02-08T14:07:20.867Z,100922.20
2019-02-08T14:09:47.425Z,100925.03
2019-02-08T14:12:14.044Z,100933.11
2019-02-08T14:14:40.638Z,100930.52
2019-02-08T14:17:07.380Z,100933.91
2019-02-08T14:19:33.951Z,100937.73
2019-02-08T14:22:00.610Z,100930.06
2019-02-08T14:24:27.193Z,100933.49
2019-02-08T14:26:53.760Z,100941.67
2019-02-08T14:29:20.350Z,100943.40
2019-02-08T14:31:46.875Z,100943.28
2019-02-08T14:34:13.420Z,100947.95
2019-02-08T14:36:40.014Z,100945.33
2019-02-08T14:39:08.243Z,100951.92
2019-02-08T14:41:35.084Z,100943.17
2019-02-08T14:44:01.651Z,100951.48
2019-02-08T14:46:28.181Z,100948.66
2019-02-08T14:48:57.205Z,100942.22
2019-02-08T14:51:23.235Z,100947.47
2019-02-08T14:53:49.855Z,100938.27
2019-02-08T14:56:16.907Z,100940.52
2019-02-08T14:58:43.591Z,100931.50
2019-02-08T15:01:10.163Z,100940.52
2019-02-08T15:03:36.773Z,100927.57
2019-02-08T15:06:03.374Z,100935.66
2019-02-08T15:08:31.625Z,100939.03
2019-02-08T15:10:58.165Z,100935.79
2019-02-08T15:13:24.743Z,100938.53
2019-02-08T15:15:51.318Z,100937.41
2019-02-08T15:18:18.790Z,100939.31
2019-02-08T15:20:45.742Z,100944.38
2019-02-08T15:23:12.378Z,100943.33
2019-02-08T15:25:38.925Z,100942.20
2019-02-08T15:28:05.562Z,100937.44
2019-02-08T15:30:36.108Z,100938.44
2019-02-08T15:33:04.241Z,100934.25
2019-02-08T15:35:30.871Z,100942.94
2019-02-08T15:37:57.793Z,100945.59
2019-02-08T15:40:29.631Z,100941.89
2019-02-08T15:42:57.318Z,100943.17
2019-02-08T15:45:24.895Z,100952.84
2019-02-08T15:47:51.408Z,100954.56
2019-02-08T15:50:18.067Z,100954.77
2019-02-08T15:52:44.734Z,100948.31
2019-02-08T15:55:17.107Z,100944.42
2019-02-08T15:57:43.854Z,100941.87
2019-02-08T16:00:15.967Z,100944.15
2019-02-08T16:02:42.621Z,100944.26
2019-02-08T16:05:14.403Z,100939.11
2019-02-08T16:07:41.029Z,100938.74
2019-02-08T16:10:08.920Z,100945.77
2019-02-08T16:12:35.479Z,100947.27
2019-02-08T16:15:07.534Z,100945.23
2019-02-08T16:17:34.246Z,100950.16
2019-02-08T16:20:00.906Z,100948.69
2019-02-08T16:22:27.431Z,100947.41
2019-02-08T16:24:53.982Z,100951.33
2019-02-08T16:27:20.599Z,100953.58
2019-02-08T16:29:47.135Z,100956.30
2019-02-08T16:32:13.775Z,100953.30
2019-02-08T16:34:40.348Z,100946.91
2019-02-08T16:37:06.934Z,100948.19
2019-02-08T16:39:33.579Z,100945.22
2019-02-08T16:42:00.206Z,100945.20
2019-02-08T16:44:27.879Z,100943.09
2019-02-08T16:46:54.494Z,100947.59
2019-02-08T16:49:21.035Z,100953.30
2019-02-08T16:51:47.920Z,100953.79
2019-02-08T16:54:14.495Z,100951.20
2019-02-08T16:56:41.100Z,100959.46
2019-02-08T16:59:07.949Z,100947.70
2019-02-08T17:01:37.627Z,100945.95
2019-02-08T17:04:05.093Z,100949.86
2019-02-08T17:06:32.754Z,100950.72
2019-02-08T17:08:59.565Z,100949.01
2019-02-08T17:11:26.227Z,100944.69
2019-02-08T17:13:52.808Z,100943.84
2019-02-08T17:16:19.520Z,100938.66
2019-02-08T17:18:46.130Z,100948.63
2019-02-08T17:21:13.363Z,100945.14
2019-02-08T17:23:40.126Z,100952.98
2019-02-08T17:26:06.815Z,100946.91
2019-02-08T17:28:33.363Z,100948.22
2019-02-08T17:30:59.965Z,100948.66
2019-02-08T17:33:26.598Z,100946.50
2019-02-08T17:35:53.240Z,100942.17
2019-02-08T17:38:21.749Z,100944.32
2019-02-08T17:40:48.545Z,100946.50
2019-02-08T17:43:15.632Z,100943.89
2019-02-08T17:45:42.289Z,100951.69
2019-02-08T17:48:13.150Z,100947.78
2019-02-08T17:50:39.839Z,100946.48
2019-02-08T17:53:06.600Z,100942.14
2019-02-08T17:55:33.286Z,100952.11
2019-02-08T17:58:03.745Z,100945.20
2019-02-08T18:00:36.939Z,100945.17
2019-02-08T18:03:03.693Z,100951.22
2019-02-08T18:05:30.407Z,100946.89
2019-02-08T18:07:57.102Z,100948.19
2019-02-08T18:10:25.944Z,100952.88
2019-02-08T18:12:52.679Z,100956.77
2019-02-08T18:15:22.083Z,100954.13
2019-02-08T18:17:48.706Z,100956.70
2019-02-08T18:20:21.054Z,100958.45
2019-02-08T18:22:47.876Z,100957.16
2019-02-08T18:25:14.863Z,100957.94
2019-02-08T18:27:42.506Z,100962.67
2019-02-08T18:30:14.456Z,100967.36
2019-02-08T18:32:41.223Z,100964.76
2019-02-08T18:35:07.932Z,100962.53
2019-02-08T18:37:35.398Z,100961.23
2019-02-08T18:40:06.762Z,100954.77
2019-02-08T18:42:33.341Z,100958.58
2019-02-08T18:45:01.015Z,100959.48
2019-02-08T18:47:27.836Z,100965.05
2019-02-08T18:49:54.418Z,100963.27
2019-02-08T18:52:22.175Z,100965.03
2019-02-08T18:54:49.171Z,100967.07
2019-02-08T18:57:15.757Z,100961.47
2019-02-08T18:59:42.376Z,100969.63
2019-02-08T19:02:12.040Z,100960.66
2019-02-08T19:04:39.226Z,100964.45
2019-02-08T19:07:06.102Z,100971.82
2019-02-08T19:09:34.676Z,100960.19
2019-02-08T19:12:01.562Z,100963.63
2019-02-08T19:14:28.926Z,100955.00
2019-02-08T19:16:55.721Z,100961.07
2019-02-08T19:19:22.314Z,100961.95
2019-02-08T19:21:48.912Z,100960.28
2019-02-08T19:24:15.509Z,100962.77
2019-02-08T19:26:42.114Z,100960.59
2019-02-08T19:29:08.712Z,100958.88
2019-02-08T19:31:35.262Z,100950.34
2019-02-08T19:34:01.924Z,100959.27
2019-02-08T19:37:25.302Z,100958.19
2019-02-08T19:39:52.114Z,100955.85
2019-02-08T19:42:18.862Z,100956.77
2019-02-08T19:44:45.638Z,100947.73
2019-02-08T19:47:12.300Z,100945.12
2019-02-08T19:49:38.858Z,100940.05
2019-02-08T19:52:05.419Z,100943.52
2019-02-08T19:54:32.063Z,100939.51
2019-02-08T19:57:01.707Z,100941.70
2019-02-08T19:59:28.338Z,100941.79
2019-02-08T20:01:54.926Z,100944.80
2019-02-08T20:04:22.625Z,100942.16
2019-02-08T20:06:49.353Z,100936.53
2019-02-08T20:09:16.041Z,100936.98
2019-02-08T20:11:43.060Z,100929.09
2019-02-08T20:14:09.731Z,100937.23
2019-02-08T20:16:36.322Z,100943.66
2019-02-08T20:19:03.020Z,100949.41
2019-02-08T20:21:30.139Z,100942.92
2019-02-08T20:23:56.897Z,100942.88
2019-02-08T20:26:23.814Z,100938.22
2019-02-08T20:28:52.511Z,100933.02
2019-02-08T20:31:20.699Z,100932.57
2019-02-08T20:33:47.481Z,100939.92
2019-02-08T20:36:14.634Z,100934.73
2019-02-08T20:38:42.527Z,100939.61
2019-02-08T20:41:09.266Z,100931.72
2019-02-08T20:43:40.091Z,100927.38
2019-02-08T20:46:07.239Z,100933.01
2019-02-08T20:48:34.071Z,100936.03
2019-02-08T20:51:00.791Z,100935.97
2019-02-08T20:53:29.268Z,100943.33
2019-02-08T20:55:56.117Z,100937.35
2019-02-08T20:58:23.888Z,100936.09
2019-02-08T21:00:50.590Z,100933.09
2019-02-08T21:03:17.471Z,100929.19
2019-02-08T21:05:47.289Z,100931.70
2019-02-08T21:08:14.468Z,100939.94
2019-02-08T21:10:41.348Z,100929.13
2019-02-08T21:13:08.662Z,100925.67
2019-02-08T21:15:35.368Z,100927.82
2019-02-08T21:18:03.576Z,100923.94
2019-02-08T21:20:30.175Z,100919.62
2019-02-08T21:22:57.122Z,100916.19
2019-02-08T21:25:28.961Z,100906.70
2019-02-08T21:27:55.539Z,100905.36
2019-02-08T21:30:22.177Z,100906.28
2019-02-08T21:32:48.792Z,100910.99
2019-02-08T21:35:18.004Z,100907.66
2019-02-08T21:37:44.830Z,100903.79
2019-02-08T21:40:16.908Z,100906.82
2019-02-08T21:42:43.466Z,100905.98
2019-02-08T21:45:15.798Z,100901.64
2019-02-08T21:47:42.431Z,100899.05
2019-02-08T21:50:14.232Z,100895.60
2019-02-08T21:52:40.819Z,100900.81
2019-02-08T21:55:11.404Z,100902.03
2019-02-08T21:57:38.005Z,100900.80
2019-02-08T22:00:10.467Z,100896.06
2019-02-08T22:02:37.131Z,100897.37
2019-02-08T22:05:09.639Z,100895.55
2019-02-08T22:07:36.266Z,100895.61
2019-02-08T22:10:08.178Z,100893.87
2019-02-08T22:12:34.723Z,100893.02
2019-02-08T22:15:01.484Z,100884.78
2019-02-08T22:17:29.904Z,100883.41
2019-02-08T22:19:56.541Z,100880.38
2019-02-08T22:22:23.291Z,100887.77
2019-02-08T22:24:49.914Z,100891.63
2019-02-08T22:27:16.567Z,100885.60
2019-02-08T22:29:43.253Z,100890.73
2019-02-08T22:32:09.849Z,100882.55
2019-02-08T22:34:37.466Z,100895.52
2019-02-08T22:37:04.060Z,100889.03
2019-02-08T22:39:30.640Z,100882.95
2019-02-08T22:41:57.286Z,100885.14
2019-02-08T22:44:23.822Z,100893.77
2019-02-08T22:46:53.125Z,100886.47
2019-02-08T22:49:20.808Z,100889.12
2019-02-08T22:51:47.386Z,100886.47
2019-02-08T22:54:14.174Z,100880.84
2019-02-08T22:56:40.855Z,100887.31
2019-02-08T22:59:07.419Z,100878.22
2019-02-08T23:01:35.672Z,100879.03
2019-02-08T23:04:03.034Z,100869.55
2019-02-08T23:06:29.606Z,100876.16
2019-02-08T23:08:56.311Z,100865.79
2019-02-08T23:11:22.966Z,100867.50
2019-02-08T23:13:49.516Z,100853.23
2019-02-08T23:16:16.596Z,100854.08
2019-02-08T23:18:43.447Z,100851.92
2019-02-08T23:21:10.047Z,100852.38
2019-02-08T23:23:36.900Z,100849.36
2019-02-08T23:26:03.759Z,100846.80
2019-02-08T23:28:30.364Z,100848.56
2019-02-08T23:30:56.921Z,100845.53
2019-02-08T23:33:23.487Z,100839.48
2019-02-08T23:35:50.072Z,100842.07
2019-02-08T23:38:16.730Z,100837.30
2019-02-08T23:40:44.775Z,100834.75
2019-02-08T23:43:11.483Z,100828.27
2019-02-08T23:45:38.171Z,100834.34
2019-02-08T23:48:04.706Z,100823.98
2019-02-08T23:50:31.324Z,100821.79
2019-02-08T23:52:57.916Z,100815.34
2019-02-08T23:55:26.315Z,100816.23
2019-02-08T23:57:52.992Z,100811.03
